TimeEST,TemperatureF,Dew PointF,Humidity,Sea Level PressureIn,VisibilityMPH,Wind Direction,Wind SpeedMPH,Gust SpeedMPH,PrecipitationIn,Events,Conditions,WindDirDegrees,DateUTC
12:58 AM,64.0,62.1,93,30.14,6.0,North,10.4,-,N/A,,Overcast,350,2012-11-15 05:58:00
1:35 AM,64.4,62.6,94,30.12,5.0,North,9.2,-,N/A,,Overcast,360,2012-11-15 06:35:00
1:58 AM,64.9,64.0,97,30.12,6.0,North,11.5,-,N/A,,Overcast,360,2012-11-15 06:58:00
2:58 AM,64.9,63.0,93,30.11,5.0,North,11.5,-,N/A,,Overcast,350,2012-11-15 07:58:00
3:51 AM,64.4,62.6,94,30.11,5.0,NNW,11.5,-,N/A,,Overcast,330,2012-11-15 08:51:00
3:58 AM,64.0,62.1,93,30.11,4.0,NNW,11.5,-,N/A,,Overcast,330,2012-11-15 08:58:00
4:58 AM,62.1,61.0,96,30.12,4.0,NNW,9.2,-,N/A,,Overcast,330,2012-11-15 09:58:00
5:58 AM,61.0,59.0,93,30.13,5.0,NNW,9.2,-,N/A,,Overcast,340,2012-11-15 10:58:00
6:43 AM,59.0,57.2,94,30.14,4.0,NNW,11.5,-,N/A,,Overcast,340,2012-11-15 11:43:00
6:58 AM,59.0,57.0,93,30.15,3.0,NNW,10.4,-,N/A,,Overcast,340,2012-11-15 11:58:00
7:06 AM,59.0,57.2,94,30.15,2.5,NNW,11.5,-,N/A,,Overcast,330,2012-11-15 12:06:00
7:58 AM,57.0,55.0,93,30.18,2.0,North,10.4,-,N/A,,Overcast,350,2012-11-15 12:58:00
8:05 AM,55.4,55.4,100,30.18,1.8,NNW,10.4,-,N/A,,Overcast,340,2012-11-15 13:05:00
8:30 AM,55.4,53.6,94,30.19,2.0,NNW,15.0,19.6,N/A,,Overcast,340,2012-11-15 13:30:00
8:58 AM,55.0,54.0,96,30.20,3.0,North,10.4,-,N/A,,Overcast,350,2012-11-15 13:58:00
9:58 AM,55.0,53.1,93,30.21,5.0,NNW,11.5,-,N/A,,Overcast,340,2012-11-15 14:58:00
10:09 AM,55.4,53.6,94,30.21,5.0,NNW,11.5,-,N/A,,Overcast,340,2012-11-15 15:09:00
10:58 AM,55.0,53.1,93,30.22,4.0,NNW,12.7,-,N/A,,Overcast,340,2012-11-15 15:58:00
11:18 AM,55.4,53.6,94,30.21,8.0,NNW,9.2,-,N/A,,Overcast,340,2012-11-15 16:18:00
11:58 AM,55.9,53.1,90,30.20,6.0,NNW,9.2,-,N/A,,Overcast,340,2012-11-15 16:58:00
12:58 PM,57.9,54.0,87,30.17,5.0,North,13.8,-,N/A,,Overcast,360,2012-11-15 17:58:00
1:58 PM,57.9,55.0,90,30.15,3.0,North,11.5,-,N/A,,Overcast,350,2012-11-15 18:58:00
2:58 PM,59.0,55.0,87,30.15,3.0,NNW,10.4,-,N/A,,Overcast,340,2012-11-15 19:58:00
3:58 PM,57.9,55.0,90,30.15,3.0,North,11.5,-,N/A,,Overcast,350,2012-11-15 20:58:00
4:58 PM,57.0,54.0,89,30.16,3.0,NW,10.4,-,N/A,,Overcast,320,2012-11-15 21:58:00
5:26 PM,57.2,53.6,88,30.16,3.0,NW,6.9,-,N/A,,Overcast,310,2012-11-15 22:26:00
5:31 PM,57.2,53.6,88,30.16,3.0,NW,6.9,-,N/A,,Overcast,310,2012-11-15 22:31:00
5:58 PM,57.0,54.0,89,30.16,6.0,NW,9.2,-,N/A,,Overcast,320,2012-11-15 22:58:00
6:02 PM,57.2,53.6,88,30.16,10.0,NNW,8.1,-,N/A,,Overcast,330,2012-11-15 23:02:00
6:45 PM,57.2,53.6,88,30.16,10.0,NNW,10.4,-,N/A,,Overcast,330,2012-11-15 23:45:00
6:58 PM,57.0,54.0,89,30.17,6.0,NNW,9.2,-,N/A,,Overcast,330,2012-11-15 23:58:00
7:58 PM,57.0,55.0,93,30.18,6.0,NW,10.4,-,N/A,,Overcast,320,2012-11-16 00:58:00
8:30 PM,57.2,53.6,88,30.18,6.0,NNW,10.4,-,N/A,,Overcast,330,2012-11-16 01:30:00
8:58 PM,57.0,55.0,93,30.19,6.0,NNW,10.4,-,N/A,,Overcast,330,2012-11-16 01:58:00
9:58 PM,57.0,55.0,93,30.19,10.0,NNW,10.4,-,N/A,,Overcast,330,2012-11-16 02:58:00
10:43 PM,57.2,55.4,94,30.19,9.0,NNW,9.2,-,N/A,,Overcast,330,2012-11-16 03:43:00
10:58 PM,57.0,54.0,89,30.19,10.0,NNW,9.2,-,N/A,,Overcast,330,2012-11-16 03:58:00
11:58 PM,55.9,54.0,93,30.19,10.0,NW,10.4,-,N/A,,Overcast,320,2012-11-16 04:58:00